Terminal Aerodrome Forecast
Issued by NWS Charleston, WV

Current Version | Previous Version | Graphics & Text | Print | Product List | Glossary On
Versions: 1 2 3 4 5 6 7 8 9 10 11 12 13 14 15 16 17 18 19 20 21 22 23 24 25 26
528
FTUS41 KRLX 090902 AAA
TAFEKN
TAF AMD
KEKN 090902Z 0909/1006 29008KT 5SM -SHSN OVC025
     FM091400 28008KT 6SM -SHSN OVC025
     FM100000 28007KT P6SM OVC025=

USA.gov is the U.S. government's official web portal to all federal, state and local government web resources and services.